Ardonia, NY

3:16 PM EST on November 26, 2014 (GMT -0500)
Town of Lloyd | Change Station
CLOSE
Current Station
Personal Weather Station
Location: Highland, NY
Elevation: 315 ft
Nearby Weather Stations
Active Advisory: Winter Storm Warning Active Notice: Public Information Statement

Elev 315 ft 41.72 °N, 73.97 °W | Updated 1 second ago

Snow
Snow
32.5 °F
Feels Like 32 °F
N
0.0
Wind Variable Wind from North
Gusts 0.0 mph

Today
High -- | Low -- °F
--% Chance of Precip.
Yesterday
High -- | Low -- °F
Precip. -- in
6:58 AM 4:28 PM
Waxing Crescent, 22% visible
Pressure 29.93 in
Visibility 1.8 miles
Clouds Mostly Cloudy 700 ft
Overcast 1100 ft
Windchill 32 °F
Dew Point 32 °F
Humidity 99%
Rainfall 0.00 in
Snow Depth Not available.
UV 0 out of 12
Pollen .10 out of 12
Air Quality Not available.
Flu Activity Not available.
SPECI KPOU 262011Z 02008KT 1 3/4SM -SN BR BKN007 OVC011 01/M01 A2993 RMK AO2 P0001 T00111006

More Conditions Fewer Conditions

Pressure 29.93 in
Visibility 1.8 miles
Clouds Mostly Cloudy 700 ft
Overcast 1100 ft
Windchill 32 °F
Dew Point 32 °F
Humidity 99%
Rainfall 0.00 in
Snow Depth Not available.
UV 0 out of 12
Pollen .10 out of 12
Air Quality Not available.
Flu Activity Not available.
SPECI KPOU 262011Z 02008KT 1 3/4SM -SN BR BKN007 OVC011 01/M01 A2993 RMK AO2 P0001 T00111006

More Conditions Fewer Conditions

10-Day Weather Forecast

Almanac

Astronomy

Nov. 26, 2014 Rise Set
Actual Time
Civil Twilight
Nautical Twilight
Astronomical Twilight
Moon
Length of Visible Light
Length of Day
Tomorrow will be .
, % of the Moon is Illuminated

Today's Extremes

State Highs State Lows

Community

WunderPhotos

Upload Photos

1,773,846 photos uploaded!

WunderBlogs® & News

Nearby

Air Quality

  Air Quality AQ Index Pollutant
Not available.

Snow Depth

Station Depth Elevation

Earthquake Activity

City Distance Mag. Time & Date
Minimum magnitude displayed is 2.5.

Coastal Water Temperatures

Place Temperature

Nearby Weather Stations